sensor_id;sensor_type;location;lat;lon;timestamp;pressure;altitude;pressure_sealevel;temperature;humidity
73860;BME280;62197;51.632;13.700;2023-03-14T00:01:49;98083.59;;;10.17;100.00
73860;BME280;62197;51.632;13.700;2023-03-14T00:04:14;98091.03;;;10.17;100.00
73860;BME280;62197;51.632;13.700;2023-03-14T00:06:40;98083.88;;;10.16;100.00
73860;BME280;62197;51.632;13.700;2023-03-14T00:09:05;98097.81;;;10.24;100.00
73860;BME280;62197;51.632;13.700;2023-03-14T00:11:30;98095.66;;;10.21;100.00
73860;BME280;62197;51.632;13.700;2023-03-14T00:13:56;98084.63;;;10.21;100.00
73860;BME280;62197;51.632;13.700;2023-03-14T00:16:21;98084.03;;;10.24;100.00
73860;BME280;62197;51.632;13.700;2023-03-14T00:18:47;98085.22;;;10.18;100.00
73860;BME280;62197;51.632;13.700;2023-03-14T00:21:12;98085.47;;;10.22;100.00
73860;BME280;62197;51.632;13.700;2023-03-14T00:23:39;98067.25;;;10.21;100.00
73860;BME280;62197;51.632;13.700;2023-03-14T00:26:08;98068.41;;;10.20;100.00
73860;BME280;62197;51.632;13.700;2023-03-14T00:28:35;98062.13;;;10.14;100.00
73860;BME280;62197;51.632;13.700;2023-03-14T00:31:05;98066.03;;;10.08;100.00
73860;BME280;62197;51.632;13.700;2023-03-14T00:33:31;98072.13;;;10.10;100.00
73860;BME280;62197;51.632;13.700;2023-03-14T00:36:05;98062.41;;;10.13;100.00
73860;BME280;62197;51.632;13.700;2023-03-14T00:38:31;98043.75;;;10.04;100.00
73860;BME280;62197;51.632;13.700;2023-03-14T00:40:57;98071.00;;;10.11;100.00
73860;BME280;62197;51.632;13.700;2023-03-14T00:43:22;98066.41;;;10.01;100.00
73860;BME280;62197;51.632;13.700;2023-03-14T00:45:50;98070.00;;;10.02;100.00
73860;BME280;62197;51.632;13.700;2023-03-14T00:48:16;98045.19;;;10.02;100.00
73860;BME280;62197;51.632;13.700;2023-03-14T00:50:42;98031.97;;;9.99;100.00
73860;BME280;62197;51.632;13.700;2023-03-14T00:53:07;98016.38;;;9.94;100.00
73860;BME280;62197;51.632;13.700;2023-03-14T00:55:35;98010.63;;;9.91;100.00
73860;BME280;62197;51.632;13.700;2023-03-14T00:58:01;98001.69;;;9.80;100.00
73860;BME280;62197;51.632;13.700;2023-03-14T01:00:26;98012.78;;;9.75;100.00
73860;BME280;62197;51.632;13.700;2023-03-14T01:02:51;98022.88;;;9.80;100.00
73860;BME280;62197;51.632;13.700;2023-03-14T01:05:16;98021.84;;;9.76;100.00
73860;BME280;62197;51.632;13.700;2023-03-14T01:07:42;98041.06;;;9.81;100.00
73860;BME280;62197;51.632;13.700;2023-03-14T01:10:07;98041.63;;;9.78;100.00
73860;BME280;62197;51.632;13.700;2023-03-14T01:12:33;98062.56;;;9.79;100.00
73860;BME280;62197;51.632;13.700;2023-03-14T01:14:58;98037.09;;;9.68;100.00
73860;BME280;62197;51.632;13.700;2023-03-14T01:17:23;98065.78;;;9.86;100.00
73860;BME280;62197;51.632;13.700;2023-03-14T01:19:49;98067.78;;;9.80;100.00
73860;BME280;62197;51.632;13.700;2023-03-14T01:22:14;98067.19;;;9.83;100.00
73860;BME280;62197;51.632;13.700;2023-03-14T01:24:39;98059.22;;;9.82;100.00
73860;BME280;62197;51.632;13.700;2023-03-14T01:27:05;98044.78;;;9.90;100.00
73860;BME280;62197;51.632;13.700;2023-03-14T01:29:30;98046.50;;;9.86;100.00
73860;BME280;62197;51.632;13.700;2023-03-14T01:31:55;98050.22;;;9.95;100.00
73860;BME280;62197;51.632;13.700;2023-03-14T01:34:21;98041.00;;;9.86;100.00
73860;BME280;62197;51.632;13.700;2023-03-14T01:36:46;98034.81;;;9.94;100.00
73860;BME280;62197;51.632;13.700;2023-03-14T01:39:11;98066.09;;;10.03;100.00
73860;BME280;62197;51.632;13.700;2023-03-14T01:41:38;98062.25;;;10.04;100.00
73860;BME280;62197;51.632;13.700;2023-03-14T01:44:04;98069.25;;;9.96;100.00
73860;BME280;62197;51.632;13.700;2023-03-14T01:46:36;98070.34;;;9.95;100.00
73860;BME280;62197;51.632;13.700;2023-03-14T01:49:10;98085.81;;;9.91;100.00
73860;BME280;62197;51.632;13.700;2023-03-14T01:51:46;98086.13;;;9.90;100.00
73860;BME280;62197;51.632;13.700;2023-03-14T01:54:19;98091.69;;;9.85;100.00
73860;BME280;62197;51.632;13.700;2023-03-14T01:57:35;98065.34;;;9.79;100.00
73860;BME280;62197;51.632;13.700;2023-03-14T01:59:35;98072.47;;;9.80;100.00
73860;BME280;62197;51.632;13.700;2023-03-14T02:02:04;98063.09;;;9.81;100.00
73860;BME280;62197;51.632;13.700;2023-03-14T02:04:34;98068.63;;;9.81;100.00
73860;BME280;62197;51.632;13.700;2023-03-14T02:07:12;98071.28;;;9.86;100.00
73860;BME280;62197;51.632;13.700;2023-03-14T02:09:40;98067.97;;;9.89;100.00
73860;BME280;62197;51.632;13.700;2023-03-14T02:12:08;98073.75;;;9.87;100.00
73860;BME280;62197;51.632;13.700;2023-03-14T02:14:35;98082.25;;;9.91;100.00
73860;BME280;62197;51.632;13.700;2023-03-14T02:17:02;98076.81;;;9.86;100.00
73860;BME280;62197;51.632;13.700;2023-03-14T02:22:10;98071.75;;;9.93;100.00
73860;BME280;62197;51.632;13.700;2023-03-14T02:27:13;98068.53;;;9.86;100.00
73860;BME280;62197;51.632;13.700;2023-03-14T02:29:55;98052.88;;;9.81;100.00
73860;BME280;62197;51.632;13.700;2023-03-14T02:32:23;98053.72;;;9.82;100.00
73860;BME280;62197;51.632;13.700;2023-03-14T02:34:54;98058.47;;;9.76;100.00
73860;BME280;62197;51.632;13.700;2023-03-14T02:37:22;98046.16;;;9.69;100.00
73860;BME280;62197;51.632;13.700;2023-03-14T02:39:48;98056.66;;;9.67;100.00
73860;BME280;62197;51.632;13.700;2023-03-14T02:42:14;98052.84;;;9.63;100.00
73860;BME280;62197;51.632;13.700;2023-03-14T02:44:53;98063.34;;;9.61;100.00
73860;BME280;62197;51.632;13.700;2023-03-14T02:47:26;98067.22;;;9.60;100.00
73860;BME280;62197;51.632;13.700;2023-03-14T02:49:56;98051.88;;;9.54;100.00
73860;BME280;62197;51.632;13.700;2023-03-14T02:52:24;98028.44;;;9.33;100.00
73860;BME280;62197;51.632;13.700;2023-03-14T02:54:49;98040.25;;;9.33;100.00
73860;BME280;62197;51.632;13.700;2023-03-14T02:57:15;98044.38;;;9.36;100.00
73860;BME280;62197;51.632;13.700;2023-03-14T02:59:41;98035.56;;;9.34;100.00
73860;BME280;62197;51.632;13.700;2023-03-14T03:02:06;98029.63;;;9.27;100.00
73860;BME280;62197;51.632;13.700;2023-03-14T03:04:31;98035.81;;;9.37;100.00
73860;BME280;62197;51.632;13.700;2023-03-14T03:06:57;98039.63;;;9.41;100.00
73860;BME280;62197;51.632;13.700;2023-03-14T03:09:22;98033.34;;;9.36;100.00
73860;BME280;62197;51.632;13.700;2023-03-14T03:11:47;98019.59;;;9.36;100.00
73860;BME280;62197;51.632;13.700;2023-03-14T03:14:13;98008.50;;;9.41;100.00
73860;BME280;62197;51.632;13.700;2023-03-14T03:16:38;98012.56;;;9.48;100.00
73860;BME280;62197;51.632;13.700;2023-03-14T03:19:03;98010.09;;;9.47;100.00
73860;BME280;62197;51.632;13.700;2023-03-14T03:21:29;98008.25;;;9.42;100.00
73860;BME280;62197;51.632;13.700;2023-03-14T03:23:54;97997.56;;;9.36;100.00
73860;BME280;62197;51.632;13.700;2023-03-14T03:26:19;97996.63;;;9.45;100.00
73860;BME280;62197;51.632;13.700;2023-03-14T03:28:45;97997.16;;;9.47;100.00
73860;BME280;62197;51.632;13.700;2023-03-14T03:31:11;98000.66;;;9.53;100.00
73860;BME280;62197;51.632;13.700;2023-03-14T03:33:37;97997.13;;;9.71;100.00
73860;BME280;62197;51.632;13.700;2023-03-14T03:36:03;97986.13;;;9.71;100.00
73860;BME280;62197;51.632;13.700;2023-03-14T03:38:28;97995.94;;;9.77;100.00
73860;BME280;62197;51.632;13.700;2023-03-14T03:40:54;97989.09;;;9.74;100.00
73860;BME280;62197;51.632;13.700;2023-03-14T03:43:19;98000.19;;;9.69;100.00
73860;BME280;62197;51.632;13.700;2023-03-14T03:45:44;97992.16;;;9.73;100.00
73860;BME280;62197;51.632;13.700;2023-03-14T03:48:09;98001.50;;;9.72;100.00
73860;BME280;62197;51.632;13.700;2023-03-14T03:50:35;98003.28;;;9.63;100.00
73860;BME280;62197;51.632;13.700;2023-03-14T03:53:00;98009.31;;;9.65;100.00
73860;BME280;62197;51.632;13.700;2023-03-14T03:55:25;97999.81;;;9.76;100.00
73860;BME280;62197;51.632;13.700;2023-03-14T03:57:53;97995.34;;;9.80;100.00
73860;BME280;62197;51.632;13.700;2023-03-14T04:00:18;97990.66;;;9.80;100.00
73860;BME280;62197;51.632;13.700;2023-03-14T04:02:43;97986.69;;;9.68;100.00
73860;BME280;62197;51.632;13.700;2023-03-14T04:05:09;97989.38;;;9.73;100.00
73860;BME280;62197;51.632;13.700;2023-03-14T04:07:34;97993.78;;;9.74;100.00
73860;BME280;62197;51.632;13.700;2023-03-14T04:09:59;97991.09;;;9.69;100.00
73860;BME280;62197;51.632;13.700;2023-03-14T04:12:25;97985.75;;;9.77;100.00
73860;BME280;62197;51.632;13.700;2023-03-14T04:14:50;97976.66;;;9.77;100.00
73860;BME280;62197;51.632;13.700;2023-03-14T04:17:15;97977.78;;;9.76;100.00
73860;BME280;62197;51.632;13.700;2023-03-14T04:19:41;97958.97;;;9.83;100.00
73860;BME280;62197;51.632;13.700;2023-03-14T04:22:07;97976.44;;;9.92;100.00
73860;BME280;62197;51.632;13.700;2023-03-14T04:24:32;97971.53;;;9.89;100.00
73860;BME280;62197;51.632;13.700;2023-03-14T04:26:58;97964.28;;;9.93;100.00
73860;BME280;62197;51.632;13.700;2023-03-14T04:29:23;97974.06;;;10.04;100.00
73860;BME280;62197;51.632;13.700;2023-03-14T04:31:48;97959.31;;;9.95;100.00
73860;BME280;62197;51.632;13.700;2023-03-14T04:34:14;97941.91;;;9.81;100.00
73860;BME280;62197;51.632;13.700;2023-03-14T04:36:39;97955.44;;;9.96;100.00
73860;BME280;62197;51.632;13.700;2023-03-14T04:39:04;97964.25;;;9.98;100.00
73860;BME280;62197;51.632;13.700;2023-03-14T04:41:29;97962.38;;;9.93;100.00
73860;BME280;62197;51.632;13.700;2023-03-14T04:43:55;97961.09;;;9.86;100.00
73860;BME280;62197;51.632;13.700;2023-03-14T04:46:21;97951.28;;;9.80;100.00
73860;BME280;62197;51.632;13.700;2023-03-14T04:48:46;97951.78;;;9.82;100.00
73860;BME280;62197;51.632;13.700;2023-03-14T04:51:11;97967.13;;;9.88;100.00
73860;BME280;62197;51.632;13.700;2023-03-14T04:53:37;97944.00;;;9.89;100.00
73860;BME280;62197;51.632;13.700;2023-03-14T04:56:02;97951.56;;;9.97;100.00
73860;BME280;62197;51.632;13.700;2023-03-14T04:58:27;97938.50;;;9.89;100.00
73860;BME280;62197;51.632;13.700;2023-03-14T05:00:52;97938.31;;;9.99;100.00
73860;BME280;62197;51.632;13.700;2023-03-14T05:03:18;97936.06;;;10.01;100.00
73860;BME280;62197;51.632;13.700;2023-03-14T05:05:44;97939.03;;;10.04;100.00
73860;BME280;62197;51.632;13.700;2023-03-14T05:08:10;97927.22;;;10.04;100.00
73860;BME280;62197;51.632;13.700;2023-03-14T05:10:35;97911.50;;;10.04;100.00
73860;BME280;62197;51.632;13.700;2023-03-14T05:13:00;97909.25;;;10.07;100.00
73860;BME280;62197;51.632;13.700;2023-03-14T05:15:26;97897.94;;;10.08;100.00
73860;BME280;62197;51.632;13.700;2023-03-14T05:17:51;97913.97;;;10.06;100.00
73860;BME280;62197;51.632;13.700;2023-03-14T05:20:18;97900.97;;;10.07;100.00
73860;BME280;62197;51.632;13.700;2023-03-14T05:22:43;97905.69;;;10.06;100.00
73860;BME280;62197;51.632;13.700;2023-03-14T05:25:08;97917.09;;;10.18;100.00
73860;BME280;62197;51.632;13.700;2023-03-14T05:27:34;97900.66;;;10.13;100.00
73860;BME280;62197;51.632;13.700;2023-03-14T05:30:00;97916.59;;;10.16;100.00
73860;BME280;62197;51.632;13.700;2023-03-14T05:32:25;97925.34;;;10.18;100.00
73860;BME280;62197;51.632;13.700;2023-03-14T05:34:51;97907.81;;;10.14;100.00
73860;BME280;62197;51.632;13.700;2023-03-14T05:37:16;97906.38;;;10.17;100.00
73860;BME280;62197;51.632;13.700;2023-03-14T05:39:42;97905.34;;;10.13;100.00
73860;BME280;62197;51.632;13.700;2023-03-14T05:42:07;97911.09;;;10.16;100.00
73860;BME280;62197;51.632;13.700;2023-03-14T05:44:32;97913.91;;;10.11;100.00
73860;BME280;62197;51.632;13.700;2023-03-14T05:46:57;97921.63;;;10.09;100.00
73860;BME280;62197;51.632;13.700;2023-03-14T05:49:23;97910.59;;;10.09;100.00
73860;BME280;62197;51.632;13.700;2023-03-14T05:51:48;97908.53;;;10.20;100.00
73860;BME280;62197;51.632;13.700;2023-03-14T05:54:13;97914.63;;;10.17;100.00
73860;BME280;62197;51.632;13.700;2023-03-14T05:56:39;97915.16;;;10.19;100.00
73860;BME280;62197;51.632;13.700;2023-03-14T05:59:04;97915.38;;;10.22;100.00
73860;BME280;62197;51.632;13.700;2023-03-14T06:01:29;97913.13;;;10.24;100.00
73860;BME280;62197;51.632;13.700;2023-03-14T06:03:55;97912.41;;;10.19;100.00
73860;BME280;62197;51.632;13.700;2023-03-14T06:06:20;97921.50;;;10.19;100.00
73860;BME280;62197;51.632;13.700;2023-03-14T06:08:45;97917.19;;;10.13;100.00
73860;BME280;62197;51.632;13.700;2023-03-14T06:11:11;97932.00;;;10.17;100.00
73860;BME280;62197;51.632;13.700;2023-03-14T06:13:36;97932.38;;;10.11;100.00
73860;BME280;62197;51.632;13.700;2023-03-14T06:16:01;97935.94;;;10.11;100.00
73860;BME280;62197;51.632;13.700;2023-03-14T06:18:27;97935.94;;;10.11;100.00
73860;BME280;62197;51.632;13.700;2023-03-14T06:20:55;97949.06;;;10.19;100.00
73860;BME280;62197;51.632;13.700;2023-03-14T06:23:21;97933.63;;;10.18;100.00
73860;BME280;62197;51.632;13.700;2023-03-14T06:25:47;97937.22;;;10.19;100.00
73860;BME280;62197;51.632;13.700;2023-03-14T06:28:12;97937.41;;;10.22;100.00
73860;BME280;62197;51.632;13.700;2023-03-14T06:30:38;97952.75;;;10.28;100.00
73860;BME280;62197;51.632;13.700;2023-03-14T06:33:03;97948.97;;;10.24;100.00
73860;BME280;62197;51.632;13.700;2023-03-14T06:35:29;97952.53;;;10.25;100.00
73860;BME280;62197;51.632;13.700;2023-03-14T06:37:54;97956.44;;;10.24;100.00
73860;BME280;62197;51.632;13.700;2023-03-14T06:40:19;97955.25;;;10.30;100.00
73860;BME280;62197;51.632;13.700;2023-03-14T06:42:45;97954.84;;;10.36;100.00
73860;BME280;62197;51.632;13.700;2023-03-14T06:45:10;97957.28;;;10.38;100.00
73860;BME280;62197;51.632;13.700;2023-03-14T06:47:36;97972.41;;;10.40;100.00
73860;BME280;62197;51.632;13.700;2023-03-14T06:50:03;97964.13;;;10.40;100.00
73860;BME280;62197;51.632;13.700;2023-03-14T06:52:29;97974.88;;;10.42;100.00
73860;BME280;62197;51.632;13.700;2023-03-14T06:54:54;97979.19;;;10.48;100.00
73860;BME280;62197;51.632;13.700;2023-03-14T06:57:19;97981.41;;;10.64;99.96
73860;BME280;62197;51.632;13.700;2023-03-14T06:59:45;97978.63;;;10.64;100.00
73860;BME280;62197;51.632;13.700;2023-03-14T07:02:11;97978.13;;;10.62;100.00
73860;BME280;62197;51.632;13.700;2023-03-14T07:04:37;97981.91;;;10.66;99.14
73860;BME280;62197;51.632;13.700;2023-03-14T07:07:02;97997.75;;;10.74;98.42
73860;BME280;62197;51.632;13.700;2023-03-14T07:09:27;97994.41;;;10.77;98.60
73860;BME280;62197;51.632;13.700;2023-03-14T07:11:53;97988.88;;;10.77;98.11
73860;BME280;62197;51.632;13.700;2023-03-14T07:14:18;97956.97;;;10.71;97.95
73860;BME280;62197;51.632;13.700;2023-03-14T07:16:43;97972.75;;;10.84;99.07
73860;BME280;62197;51.632;13.700;2023-03-14T07:19:10;97975.19;;;10.86;98.50
73860;BME280;62197;51.632;13.700;2023-03-14T07:21:35;97956.63;;;10.92;100.00
73860;BME280;62197;51.632;13.700;2023-03-14T07:24:01;97973.00;;;11.29;96.24
73860;BME280;62197;51.632;13.700;2023-03-14T07:26:26;97974.44;;;11.40;94.27
73860;BME280;62197;51.632;13.700;2023-03-14T07:28:52;97980.53;;;11.10;95.78
73860;BME280;62197;51.632;13.700;2023-03-14T07:31:17;97968.06;;;10.99;95.90
73860;BME280;62197;51.632;13.700;2023-03-14T07:33:42;97968.66;;;10.96;96.02
73860;BME280;62197;51.632;13.700;2023-03-14T07:36:08;97977.69;;;11.01;96.90
73860;BME280;62197;51.632;13.700;2023-03-14T07:38:33;97976.88;;;11.01;96.22
73860;BME280;62197;51.632;13.700;2023-03-14T07:41:04;97958.88;;;10.89;96.07
73860;BME280;62197;51.632;13.700;2023-03-14T07:43:30;97955.38;;;10.98;96.71
73860;BME280;62197;51.632;13.700;2023-03-14T07:45:55;97963.47;;;11.08;96.29
73860;BME280;62197;51.632;13.700;2023-03-14T07:48:21;97979.44;;;11.11;95.77
73860;BME280;62197;51.632;13.700;2023-03-14T07:50:49;97980.53;;;11.10;95.35
73860;BME280;62197;51.632;13.700;2023-03-14T07:53:15;97967.88;;;11.09;95.05
73860;BME280;62197;51.632;13.700;2023-03-14T07:55:41;97974.63;;;11.16;95.26
73860;BME280;62197;51.632;13.700;2023-03-14T07:58:06;97965.53;;;11.16;95.53
73860;BME280;62197;51.632;13.700;2023-03-14T08:00:31;97966.56;;;11.20;95.85
73860;BME280;62197;51.632;13.700;2023-03-14T08:02:57;97952.34;;;11.26;94.17
73860;BME280;62197;51.632;13.700;2023-03-14T08:05:23;97937.81;;;11.21;93.92
73860;BME280;62197;51.632;13.700;2023-03-14T08:07:48;97917.88;;;11.24;94.10
73860;BME280;62197;51.632;13.700;2023-03-14T08:10:13;97952.13;;;11.23;94.43
73860;BME280;62197;51.632;13.700;2023-03-14T08:12:46;97940.88;;;11.33;94.70
73860;BME280;62197;51.632;13.700;2023-03-14T08:15:11;97948.44;;;11.27;94.41
73860;BME280;62197;51.632;13.700;2023-03-14T08:17:36;97946.19;;;11.43;94.57
73860;BME280;62197;51.632;13.700;2023-03-14T08:20:02;97941.06;;;11.36;94.06
73860;BME280;62197;51.632;13.700;2023-03-14T08:22:31;97952.09;;;11.50;94.56
73860;BME280;62197;51.632;13.700;2023-03-14T08:24:57;97951.91;;;11.60;93.46
73860;BME280;62197;51.632;13.700;2023-03-14T08:27:22;97951.81;;;11.65;92.34
73860;BME280;62197;51.632;13.700;2023-03-14T08:29:47;97962.25;;;11.68;92.35
73860;BME280;62197;51.632;13.700;2023-03-14T08:32:13;97955.00;;;11.72;92.01
73860;BME280;62197;51.632;13.700;2023-03-14T08:34:38;97965.09;;;11.90;91.84
73860;BME280;62197;51.632;13.700;2023-03-14T08:37:05;97967.22;;;11.93;92.03
73860;BME280;62197;51.632;13.700;2023-03-14T08:39:30;97967.44;;;11.83;90.84
73860;BME280;62197;51.632;13.700;2023-03-14T08:41:55;97968.69;;;11.77;91.89
73860;BME280;62197;51.632;13.700;2023-03-14T08:44:21;97974.44;;;11.67;90.90
73860;BME280;62197;51.632;13.700;2023-03-14T08:46:46;97970.13;;;11.61;91.25
73860;BME280;62197;51.632;13.700;2023-03-14T08:49:11;97955.91;;;11.54;92.20
73860;BME280;62197;51.632;13.700;2023-03-14T08:51:37;97956.00;;;11.49;92.59
73860;BME280;62197;51.632;13.700;2023-03-14T08:54:02;97958.88;;;11.57;91.38
73860;BME280;62197;51.632;13.700;2023-03-14T08:56:27;97961.69;;;11.93;91.55
73860;BME280;62197;51.632;13.700;2023-03-14T08:58:53;97963.88;;;11.83;89.95
73860;BME280;62197;51.632;13.700;2023-03-14T09:01:18;97965.72;;;11.73;90.11
73860;BME280;62197;51.632;13.700;2023-03-14T09:03:44;97963.91;;;12.05;90.72
73860;BME280;62197;51.632;13.700;2023-03-14T09:06:11;97951.31;;;12.34;87.86
73860;BME280;62197;51.632;13.700;2023-03-14T09:08:36;97956.16;;;12.51;87.07
73860;BME280;62197;51.632;13.700;2023-03-14T09:11:02;97951.16;;;12.84;87.52
73860;BME280;62197;51.632;13.700;2023-03-14T09:13:27;97968.00;;;12.96;84.84
73860;BME280;62197;51.632;13.700;2023-03-14T09:15:54;97956.88;;;13.09;82.88
73860;BME280;62197;51.632;13.700;2023-03-14T09:18:19;97952.00;;;13.15;82.89
73860;BME280;62197;51.632;13.700;2023-03-14T09:20:45;97948.13;;;13.16;82.37
73860;BME280;62197;51.632;13.700;2023-03-14T09:23:10;97963.47;;;13.00;81.76
73860;BME280;62197;51.632;13.700;2023-03-14T09:25:35;97963.72;;;12.90;83.72
73860;BME280;62197;51.632;13.700;2023-03-14T09:28:01;97949.78;;;12.95;82.05
73860;BME280;62197;51.632;13.700;2023-03-14T09:30:26;97969.38;;;13.07;82.82
73860;BME280;62197;51.632;13.700;2023-03-14T09:32:52;97961.53;;;13.00;83.34
73860;BME280;62197;51.632;13.700;2023-03-14T09:35:17;97962.81;;;13.25;81.53
73860;BME280;62197;51.632;13.700;2023-03-14T09:37:42;97975.59;;;13.43;80.89
73860;BME280;62197;51.632;13.700;2023-03-14T09:40:12;97971.88;;;13.56;80.43
73860;BME280;62197;51.632;13.700;2023-03-14T09:42:38;97983.25;;;13.46;80.53
73860;BME280;62197;51.632;13.700;2023-03-14T09:45:07;97982.75;;;13.44;81.54
73860;BME280;62197;51.632;13.700;2023-03-14T09:47:35;97986.34;;;13.44;81.01
73860;BME280;62197;51.632;13.700;2023-03-14T09:50:01;97979.97;;;13.44;79.32
73860;BME280;62197;51.632;13.700;2023-03-14T09:52:33;97980.19;;;13.17;81.48
73860;BME280;62197;51.632;13.700;2023-03-14T09:55:06;97963.69;;;13.03;80.70
73860;BME280;62197;51.632;13.700;2023-03-14T09:57:36;97969.91;;;12.87;81.84
73860;BME280;62197;51.632;13.700;2023-03-14T10:00:12;97993.41;;;12.98;81.19
73860;BME280;62197;51.632;13.700;2023-03-14T10:02:41;97977.41;;;13.08;80.59
73860;BME280;62197;51.632;13.700;2023-03-14T10:05:15;97979.34;;;13.08;81.20
73860;BME280;62197;51.632;13.700;2023-03-14T10:07:41;97977.91;;;12.88;81.01
73860;BME280;62197;51.632;13.700;2023-03-14T10:10:16;97974.22;;;13.01;80.67
73860;BME280;62197;51.632;13.700;2023-03-14T10:12:45;97987.47;;;13.04;80.12
73860;BME280;62197;51.632;13.700;2023-03-14T10:15:13;97983.34;;;13.02;81.34
73860;BME280;62197;51.632;13.700;2023-03-14T10:17:51;97968.13;;;13.13;80.82
73860;BME280;62197;51.632;13.700;2023-03-14T10:20:37;97965.72;;;12.98;79.54
73860;BME280;62197;51.632;13.700;2023-03-14T10:25:40;97979.16;;;12.82;80.51
73860;BME280;62197;51.632;13.700;2023-03-14T10:28:08;97974.44;;;12.83;80.04
73860;BME280;62197;51.632;13.700;2023-03-14T10:30:44;97979.13;;;12.74;79.34
73860;BME280;62197;51.632;13.700;2023-03-14T10:33:24;97986.19;;;12.66;80.04
73860;BME280;62197;51.632;13.700;2023-03-14T10:36:00;97976.66;;;12.72;79.52
73860;BME280;62197;51.632;13.700;2023-03-14T10:38:28;97976.06;;;12.84;79.68
73860;BME280;62197;51.632;13.700;2023-03-14T10:40:55;97972.84;;;12.90;79.40
73860;BME280;62197;51.632;13.700;2023-03-14T10:43:26;97976.44;;;12.91;78.98
73860;BME280;62197;51.632;13.700;2023-03-14T10:46:02;97968.31;;;12.94;77.14
73860;BME280;62197;51.632;13.700;2023-03-14T10:48:31;97962.47;;;12.96;77.62
73860;BME280;62197;51.632;13.700;2023-03-14T10:51:03;97984.38;;;13.06;78.04
73860;BME280;62197;51.632;13.700;2023-03-14T10:56:04;97958.91;;;12.73;77.66
73860;BME280;62197;51.632;13.700;2023-03-14T10:58:33;97990.94;;;12.65;78.05
73860;BME280;62197;51.632;13.700;2023-03-14T11:04:05;97983.66;;;12.69;79.14
73860;BME280;62197;51.632;13.700;2023-03-14T11:06:51;97969.16;;;12.73;77.39
73860;BME280;62197;51.632;13.700;2023-03-14T11:09:28;97973.50;;;12.87;77.55
73860;BME280;62197;51.632;13.700;2023-03-14T11:12:01;97963.47;;;13.00;76.50
73860;BME280;62197;51.632;13.700;2023-03-14T11:14:36;97956.19;;;13.04;76.28
73860;BME280;62197;51.632;13.700;2023-03-14T11:17:24;97969.13;;;13.17;75.43
73860;BME280;62197;51.632;13.700;2023-03-14T11:22:47;97955.78;;;13.19;75.00
73860;BME280;62197;51.632;13.700;2023-03-14T11:25:45;97948.22;;;13.11;76.69
73860;BME280;62197;51.632;13.700;2023-03-14T11:31:04;97947.78;;;12.87;77.12
73860;BME280;62197;51.632;13.700;2023-03-14T11:33:51;97949.78;;;12.95;76.88
73860;BME280;62197;51.632;13.700;2023-03-14T11:36:22;97940.63;;;12.94;76.30
73860;BME280;62197;51.632;13.700;2023-03-14T11:38:51;97937.41;;;13.01;75.68
73860;BME280;62197;51.632;13.700;2023-03-14T11:41:25;97951.88;;;12.98;75.34
73860;BME280;62197;51.632;13.700;2023-03-14T11:43:56;97951.00;;;13.11;75.74
73860;BME280;62197;51.632;13.700;2023-03-14T11:46:32;97934.88;;;13.04;75.69
73860;BME280;62197;51.632;13.700;2023-03-14T11:49:32;97945.78;;;13.09;74.93
73860;BME280;62197;51.632;13.700;2023-03-14T11:52:08;97947.72;;;13.48;74.90
73860;BME280;62197;51.632;13.700;2023-03-14T11:54:49;97950.16;;;13.41;75.70
73860;BME280;62197;51.632;13.700;2023-03-14T11:57:17;97944.81;;;13.53;75.87
73860;BME280;62197;51.632;13.700;2023-03-14T12:00:04;97940.69;;;13.33;74.33
73860;BME280;62197;51.632;13.700;2023-03-14T12:10:52;97914.53;;;12.56;80.84
73860;BME280;62197;51.632;13.700;2023-03-14T12:13:20;97933.69;;;12.52;80.95
73860;BME280;62197;51.632;13.700;2023-03-14T12:15:56;97947.69;;;12.47;81.36
73860;BME280;62197;51.632;13.700;2023-03-14T12:18:35;97947.81;;;12.42;85.08
73860;BME280;62197;51.632;13.700;2023-03-14T12:21:06;97931.22;;;12.42;83.59
73860;BME280;62197;51.632;13.700;2023-03-14T12:23:40;97929.69;;;12.58;82.09
73860;BME280;62197;51.632;13.700;2023-03-14T12:28:39;97942.50;;;12.77;80.25
73860;BME280;62197;51.632;13.700;2023-03-14T12:34:26;97931.69;;;12.97;78.53
73860;BME280;62197;51.632;13.700;2023-03-14T12:44:42;97930.50;;;12.90;80.71
73860;BME280;62197;51.632;13.700;2023-03-14T12:49:47;97951.88;;;11.87;89.06
73860;BME280;62197;51.632;13.700;2023-03-14T12:52:15;97937.56;;;11.85;92.59
73860;BME280;62197;51.632;13.700;2023-03-14T12:54:57;97946.72;;;11.45;100.00
73860;BME280;62197;51.632;13.700;2023-03-14T13:00:23;97951.97;;;10.73;100.00
73860;BME280;62197;51.632;13.700;2023-03-14T13:02:49;97936.88;;;10.84;100.00
73860;BME280;62197;51.632;13.700;2023-03-14T13:05:22;97941.81;;;11.69;100.00
73860;BME280;62197;51.632;13.700;2023-03-14T13:10:30;97943.50;;;12.81;100.00
73860;BME280;62197;51.632;13.700;2023-03-14T13:15:42;97927.59;;;12.64;98.50
73860;BME280;62197;51.632;13.700;2023-03-14T13:18:13;97921.69;;;13.49;95.51
73860;BME280;62197;51.632;13.700;2023-03-14T13:20:45;97928.38;;;15.69;84.38
73860;BME280;62197;51.632;13.700;2023-03-14T13:23:40;97912.47;;;15.11;83.48
73860;BME280;62197;51.632;13.700;2023-03-14T13:26:13;97908.19;;;16.01;80.91
73860;BME280;62197;51.632;13.700;2023-03-14T13:28:38;97918.47;;;16.83;77.15
73860;BME280;62197;51.632;13.700;2023-03-14T13:31:04;97925.16;;;15.87;79.71
73860;BME280;62197;51.632;13.700;2023-03-14T13:33:32;97902.53;;;15.01;81.45
73860;BME280;62197;51.632;13.700;2023-03-14T13:36:00;97899.56;;;14.17;88.29
73860;BME280;62197;51.632;13.700;2023-03-14T13:38:29;97905.44;;;14.50;86.79
73860;BME280;62197;51.632;13.700;2023-03-14T13:40:56;97897.75;;;17.29;73.76
73860;BME280;62197;51.632;13.700;2023-03-14T13:43:30;97896.75;;;17.45;72.80